Terminal Aerodrome Forecast
Issued by NWS Tampa Bay Area, FL

Home | Current Version | Previous Version | Text Only | Print | Product List | Glossary On
Versions: 1 2 3 4 5 6 7 8 9 10 11 12 13 14 15 16 17
213
FTUS42 KTBW 280520
TAFFMY
TAF
KFMY 280520Z 2806/2906 VRB03KT P6SM SCT250
     FM281500 20004KT P6SM VCTS SCT025CB BKN100
     FM281800 23008KT P6SM VCTS SCT040CB BKN090
     FM282000 24008KT P6SM SCT050 BKN100
     FM290100 25004KT P6SM SCT020 BKN150=

USA.gov is the U.S. government's official web portal to all federal, state and local government web resources and services.